Time;durP1;ratioP1;P1;durP2;ratioP2;P2;SDS_P1;SDS_P2;PMS_P1;PMS_P2;Temp;Humidity;BMP_temperature;BMP_pressure;BME280_temperature;BME280_humidity;BME280_pressure;Samples;Min_cycle;Max_cycle;Signal;HPM_P1;HPM_P2
2023/06/24 00:02:02;;;;;;;8.77;4.70;;;;;;;24.77;90.66;99009.59;5070355;28;20234;-72
2023/06/24 00:04:29;;;;;;;8.35;4.80;;;;;;;24.76;91.14;99015.84;5073493;28;20210;-73
2023/06/24 00:06:58;;;;;;;7.80;5.15;;;;;;;24.79;91.26;99012.81;5073170;28;20594;-73
2023/06/24 00:09:27;;;;;;;7.15;4.80;;;;;;;24.85;91.08;99014.63;5073576;28;20611;-73
2023/06/24 00:11:54;;;;;;;7.50;4.95;;;;;;;24.89;90.96;99010.56;5072808;28;20227;-72
2023/06/24 00:14:21;;;;;;;6.93;4.38;;;;;;;24.86;91.04;99003.13;5073128;28;20225;-73
2023/06/24 00:16:51;;;;;;;7.70;4.70;;;;;;;24.84;91.08;99007.75;5072848;28;20230;-72
2023/06/24 00:19:20;;;;;;;6.35;4.85;;;;;;;24.82;91.53;98997.50;5073192;28;20256;-71
2023/06/24 00:21:47;;;;;;;7.18;4.57;;;;;;;24.84;91.83;98999.91;5073085;28;20663;-73
2023/06/24 00:24:14;;;;;;;6.90;4.60;;;;;;;24.83;92.27;98998.31;5072895;28;20213;-72
2023/06/24 00:26:41;;;;;;;7.97;5.32;;;;;;;24.80;92.39;98998.72;5072913;28;20619;-73
2023/06/24 00:29:08;;;;;;;7.25;4.47;;;;;;;24.84;91.98;99000.75;5073088;28;20194;-72
2023/06/24 00:31:35;;;;;;;6.32;4.55;;;;;;;24.91;91.85;98998.09;5072364;28;20229;-72
2023/06/24 00:34:01;;;;;;;5.95;4.22;;;;;;;24.92;92.11;98997.06;5072824;28;20586;-73
2023/06/24 00:36:31;;;;;;;8.10;4.70;;;;;;;24.96;91.76;98997.47;5072263;28;20234;-72
2023/06/24 00:39:03;;;;;;;9.82;4.65;;;;;;;25.00;92.09;98996.06;5073361;28;20241;-73
2023/06/24 00:41:30;;;;;;;7.47;4.78;;;;;;;24.97;92.10;98993.84;5072286;28;20218;-72
2023/06/24 00:43:58;;;;;;;7.45;4.82;;;;;;;24.97;92.46;98999.88;5072889;28;20198;-73
2023/06/24 00:46:25;;;;;;;7.78;4.68;;;;;;;24.96;93.14;99002.69;5072225;28;20238;-72
2023/06/24 00:48:52;;;;;;;6.55;4.65;;;;;;;24.89;93.96;98997.50;5072567;28;20207;-73
2023/06/24 00:51:21;;;;;;;7.80;5.40;;;;;;;24.82;94.33;99001.94;5072062;28;20229;-72
2023/06/24 00:53:49;;;;;;;7.03;4.80;;;;;;;24.81;93.93;99000.31;5072741;28;20207;-72
2023/06/24 00:56:18;;;;;;;8.60;5.03;;;;;;;24.74;94.17;98994.31;5071906;28;20215;-73
2023/06/24 00:58:47;;;;;;;7.38;4.95;;;;;;;24.73;94.79;98992.72;5072360;28;20211;-72
2023/06/24 01:01:14;;;;;;;6.85;4.75;;;;;;;24.73;95.27;98990.09;5072239;28;20214;-71
2023/06/24 01:03:41;;;;;;;11.55;4.75;;;;;;;24.54;95.55;98989.13;5072325;28;20210;-72
2023/06/24 01:06:09;;;;;;;6.78;4.70;;;;;;;24.39;95.23;98979.66;5072038;28;20584;-73
2023/06/24 01:08:37;;;;;;;6.57;4.78;;;;;;;24.35;96.27;98980.28;5072347;28;20215;-72
2023/06/24 01:11:05;;;;;;;7.68;5.22;;;;;;;24.35;95.49;98993.34;5071749;28;20227;-73
2023/06/24 01:13:32;;;;;;;7.53;5.18;;;;;;;24.32;95.44;98983.31;5071749;28;20202;-72
2023/06/24 01:16:03;;;;;;;8.45;5.53;;;;;;;24.21;96.28;98983.91;5071982;28;20214;-73
2023/06/24 01:18:36;;;;;;;7.72;5.22;;;;;;;24.17;95.24;98989.53;5071888;28;20202;-73
2023/06/24 01:21:09;;;;;;;8.80;4.72;;;;;;;24.09;95.68;98976.66;5071730;28;20574;-72
2023/06/24 01:24:18;;;;;;;7.13;4.95;;;;;;;24.03;96.43;98977.47;5071674;28;20222;-72
2023/06/24 01:27:19;;;;;;;8.30;5.53;;;;;;;23.97;95.95;98978.28;5071664;28;20218;-72
2023/06/24 01:30:24;;;;;;;7.53;4.75;;;;;;;23.95;95.89;98977.66;5071821;28;20206;-71
2023/06/24 01:32:57;;;;;;;6.93;4.85;;;;;;;23.89;96.62;98979.25;5071676;28;20191;-74
2023/06/24 01:35:29;;;;;;;8.07;5.32;;;;;;;23.90;97.38;98982.69;5071844;28;20378;-73
2023/06/24 01:38:00;;;;;;;8.75;5.57;;;;;;;23.86;96.42;98981.47;5071436;28;20233;-74
2023/06/24 01:40:28;;;;;;;10.43;5.25;;;;;;;23.88;96.38;98979.44;5071218;28;20202;-72
2023/06/24 01:42:59;;;;;;;7.88;5.18;;;;;;;23.82;97.18;98981.06;5072029;28;20206;-73
2023/06/24 01:45:29;;;;;;;9.20;5.40;;;;;;;23.73;97.48;98977.03;5071449;28;20195;-74
2023/06/24 01:48:08;;;;;;;8.68;5.13;;;;;;;23.71;97.83;98979.06;5071632;28;20210;-74
2023/06/24 01:50:37;;;;;;;8.20;5.20;;;;;;;23.71;97.83;98979.84;5070913;28;20225;-73
2023/06/24 01:53:07;;;;;;;7.22;5.10;;;;;;;23.80;97.77;98984.88;5071244;28;20203;-74
2023/06/24 01:55:36;;;;;;;8.45;5.53;;;;;;;23.80;97.38;98979.66;5071217;28;20203;-72
2023/06/24 01:58:06;;;;;;;7.47;4.93;;;;;;;23.80;97.82;98987.50;5071046;28;20329;-72
2023/06/24 02:00:35;;;;;;;7.93;5.03;;;;;;;23.83;97.24;98984.50;5071016;28;20210;-74
2023/06/24 02:03:06;;;;;;;7.50;5.07;;;;;;;23.82;96.89;98990.69;5071108;28;20210;-74
2023/06/24 02:05:34;;;;;;;9.10;4.70;;;;;;;23.81;97.47;98989.09;5070862;28;20198;-72
2023/06/24 02:08:03;;;;;;;8.07;5.32;;;;;;;23.66;98.21;98992.66;5071222;28;20211;-72
2023/06/24 02:10:30;;;;;;;9.10;5.38;;;;;;;23.61;98.40;98997.66;5070595;28;20579;-74
2023/06/24 02:12:59;;;;;;;6.78;5.05;;;;;;;23.55;98.82;99006.28;5071012;28;20195;-73
2023/06/24 02:15:29;;;;;;;7.20;4.78;;;;;;;23.52;99.09;99011.09;5070456;28;20214;-73
2023/06/24 02:17:57;;;;;;;6.05;4.80;;;;;;;23.52;98.95;99011.88;5070856;28;20227;-72
2023/06/24 02:20:28;;;;;;;8.23;5.15;;;;;;;23.52;98.94;99006.66;5070941;28;20210;-74
2023/06/24 02:22:57;;;;;;;7.10;4.85;;;;;;;23.40;99.46;99023.91;5070726;28;20191;-74
2023/06/24 02:25:25;;;;;;;8.13;4.93;;;;;;;23.42;99.56;99017.50;5069796;28;20614;-73
2023/06/24 02:27:53;;;;;;;6.60;4.95;;;;;;;23.43;99.27;99024.31;5070506;28;20203;-72
2023/06/24 02:30:21;;;;;;;7.72;4.85;;;;;;;23.43;98.90;99023.50;5070837;28;20207;-72
2023/06/24 02:32:48;;;;;;;8.05;4.82;;;;;;;23.44;99.18;99030.31;5070368;28;20230;-74
2023/06/24 02:35:15;;;;;;;7.50;4.82;;;;;;;23.44;99.66;99032.94;5070330;28;20206;-72
2023/06/24 02:37:43;;;;;;;6.82;4.80;;;;;;;23.36;100.00;99036.53;5070213;28;20226;-74
2023/06/24 02:40:11;;;;;;;7.20;5.13;;;;;;;23.38;100.00;99041.53;5070684;28;20199;-74
2023/06/24 02:42:37;;;;;;;8.07;5.03;;;;;;;23.37;100.00;99034.72;5070223;28;20222;-73
2023/06/24 02:45:06;;;;;;;13.10;5.22;;;;;;;23.31;100.00;99035.50;5070282;28;20685;-72
2023/06/24 02:47:35;;;;;;;7.88;4.90;;;;;;;23.27;100.00;99042.91;5070340;28;20614;-74
2023/06/24 02:50:03;;;;;;;10.18;5.50;;;;;;;23.31;100.00;99045.94;5070331;28;20203;-73
2023/06/24 02:52:30;;;;;;;8.45;5.15;;;;;;;23.32;100.00;99040.50;5069987;28;20243;-73
2023/06/24 02:54:58;;;;;;;7.57;4.80;;;;;;;23.35;100.00;99047.16;5070414;28;20659;-74
2023/06/24 02:57:26;;;;;;;6.97;4.75;;;;;;;23.26;100.00;99049.13;5069837;28;20227;-74
2023/06/24 02:59:53;;;;;;;8.48;5.30;;;;;;;23.21;100.00;99052.31;5070314;28;20218;-74
2023/06/24 03:02:21;;;;;;;8.55;5.15;;;;;;;23.11;100.00;99057.06;5069738;28;20222;-74
2023/06/24 03:04:49;;;;;;;8.95;5.20;;;;;;;23.14;100.00;99050.66;5070295;28;20199;-73
2023/06/24 03:07:20;;;;;;;8.52;5.05;;;;;;;23.27;100.00;99051.56;5069820;28;20219;-72
2023/06/24 03:09:47;;;;;;;7.25;5.07;;;;;;;23.32;100.00;99052.75;5070300;28;20203;-72
2023/06/24 03:12:15;;;;;;;7.32;4.97;;;;;;;23.26;100.00;99051.72;5069776;28;20311;-72
2023/06/24 03:14:42;;;;;;;8.05;5.57;;;;;;;23.25;100.00;99052.75;5070102;28;20214;-73
2023/06/24 03:17:09;;;;;;;7.70;5.25;;;;;;;23.23;100.00;99052.13;5069551;28;20226;-73
2023/06/24 03:19:36;;;;;;;8.10;5.40;;;;;;;23.36;100.00;99053.97;5070014;28;20199;-73
2023/06/24 03:22:04;;;;;;;9.90;5.18;;;;;;;23.46;100.00;99059.66;5069549;28;20253;-74
2023/06/24 03:24:31;;;;;;;9.02;4.68;;;;;;;23.49;100.00;99059.25;5069848;28;20206;-72
2023/06/24 03:26:58;;;;;;;8.27;5.45;;;;;;;23.48;100.00;99057.66;5069873;28;20222;-74
2023/06/24 03:29:26;;;;;;;7.93;5.43;;;;;;;23.54;100.00;99056.88;5070039;28;20203;-72
2023/06/24 03:31:53;;;;;;;7.80;5.18;;;;;;;23.58;100.00;99057.28;5069746;28;20663;-72
2023/06/24 03:34:20;;;;;;;9.95;5.88;;;;;;;23.60;100.00;99057.91;5069794;28;20221;-73
2023/06/24 03:36:47;;;;;;;9.10;5.63;;;;;;;23.64;100.00;99062.50;5070228;28;20721;-74
2023/06/24 03:39:14;;;;;;;9.45;5.28;;;;;;;23.65;100.00;99056.31;5073929;28;20239;-73
2023/06/24 03:41:40;;;;;;;8.55;5.57;;;;;;;23.64;100.00;99061.72;5073737;28;20222;-72
2023/06/24 03:44:07;;;;;;;7.55;5.53;;;;;;;23.63;100.00;99060.91;5073604;28;20206;-73
2023/06/24 03:46:36;;;;;;;8.82;5.55;;;;;;;23.63;100.00;99066.13;5073531;28;20218;-72
2023/06/24 03:49:02;;;;;;;8.20;5.05;;;;;;;23.63;100.00;99076.56;5073718;28;20215;-73
2023/06/24 03:51:29;;;;;;;8.63;5.38;;;;;;;23.62;100.00;99068.94;5073336;28;20245;-72
2023/06/24 03:53:56;;;;;;;8.15;5.35;;;;;;;23.62;100.00;99074.97;5073812;28;20203;-73
2023/06/24 03:56:23;;;;;;;6.97;5.00;;;;;;;23.66;100.00;99072.78;5073194;28;20223;-72
2023/06/24 03:58:50;;;;;;;6.90;5.13;;;;;;;23.68;100.00;99061.13;5073659;28;20239;-73
2023/06/24 04:01:19;;;;;;;8.73;5.13;;;;;;;23.72;100.00;99067.59;5073209;28;20273;-72
2023/06/24 04:03:47;;;;;;;6.50;4.70;;;;;;;23.78;100.00;99073.84;5073514;28;20218;-74
2023/06/24 04:06:14;;;;;;;8.45;5.70;;;;;;;23.85;100.00;99073.84;5073122;28;20215;-72
2023/06/24 04:08:42;;;;;;;8.82;5.35;;;;;;;23.87;100.00;99077.09;5073265;28;20203;-73
2023/06/24 04:11:10;;;;;;;8.20;5.25;;;;;;;23.96;100.00;99081.13;5073073;28;20288;-74
2023/06/24 04:13:37;;;;;;;9.90;6.10;;;;;;;24.05;100.00;99077.31;5072978;28;20217;-73
2023/06/24 04:16:03;;;;;;;8.80;5.53;;;;;;;24.13;100.00;99061.44;5072987;28;20223;-72
2023/06/24 04:18:30;;;;;;;8.68;5.50;;;;;;;24.18;100.00;99066.09;5072819;28;20226;-73
2023/06/24 04:20:58;;;;;;;9.57;5.85;;;;;;;24.26;100.00;99054.63;5072979;28;20222;-72
2023/06/24 04:23:25;;;;;;;8.73;5.75;;;;;;;24.31;100.00;99058.25;5072971;28;20207;-73
2023/06/24 04:25:52;;;;;;;7.28;5.40;;;;;;;24.38;100.00;99066.13;5072661;28;20737;-73
2023/06/24 04:28:19;;;;;;;10.32;6.80;;;;;;;24.43;100.00;99068.94;5072745;28;20207;-73
2023/06/24 04:30:46;;;;;;;11.18;5.97;;;;;;;24.62;100.00;99062.91;5073126;28;20237;-73
2023/06/24 04:33:13;;;;;;;9.93;6.43;;;;;;;24.77;100.00;99061.91;5072837;28;20202;-72
2023/06/24 04:35:39;;;;;;;9.15;5.78;;;;;;;24.82;100.00;99062.09;5072998;28;20199;-73
2023/06/24 04:38:08;;;;;;;10.93;6.05;;;;;;;24.96;100.00;99061.06;5072499;28;20218;-73
2023/06/24 04:40:34;;;;;;;7.47;5.60;;;;;;;25.06;100.00;99055.41;5072463;28;20565;-72
2023/06/24 04:43:01;;;;;;;9.02;5.53;;;;;;;25.18;100.00;99059.00;5072646;28;20199;-73
2023/06/24 04:45:28;;;;;;;7.93;5.65;;;;;;;25.32;100.00;99059.78;5072268;28;20202;-72
2023/06/24 04:47:55;;;;;;;9.15;5.75;;;;;;;25.43;100.00;99061.75;5071999;28;20263;-73
2023/06/24 04:50:22;;;;;;;8.13;5.60;;;;;;;25.59;100.00;99065.69;5072439;28;20202;-72
2023/06/24 04:52:54;;;;;;;7.95;5.72;;;;;;;25.75;100.00;99064.44;5072310;28;20226;-73
2023/06/24 04:55:22;;;;;;;7.25;5.32;;;;;;;25.89;100.00;99071.22;5072376;28;20682;-73
2023/06/24 04:57:49;;;;;;;8.52;5.78;;;;;;;26.10;100.00;99074.53;5072217;28;20270;-72
2023/06/24 05:00:17;;;;;;;9.77;5.50;;;;;;;26.27;100.00;99073.00;5072505;28;20203;-72
2023/06/24 05:02:43;;;;;;;8.77;5.60;;;;;;;26.42;98.87;99065.59;5072488;28;20233;-72
2023/06/24 05:05:10;;;;;;;9.05;5.50;;;;;;;26.63;95.89;99068.91;5072550;28;20201;-72
2023/06/24 05:07:37;;;;;;;7.68;5.35;;;;;;;26.84;95.50;99078.19;5071916;28;20305;-73
2023/06/24 05:10:04;;;;;;;8.05;5.65;;;;;;;27.01;96.78;99086.28;5072316;28;20209;-73
2023/06/24 05:12:33;;;;;;;7.55;5.53;;;;;;;27.21;96.42;99089.53;5071768;28;20585;-73
2023/06/24 05:14:59;;;;;;;9.98;6.18;;;;;;;27.27;96.64;99093.91;5072318;28;20608;-73
2023/06/24 05:17:26;;;;;;;8.43;5.75;;;;;;;27.45;97.17;99093.09;5071661;28;20751;-73
2023/06/24 05:19:53;;;;;;;7.00;5.18;;;;;;;27.66;95.41;99097.06;5072000;28;20636;-72
2023/06/24 05:22:20;;;;;;;7.38;5.15;;;;;;;27.83;92.92;99093.88;5071624;28;20222;-73
2023/06/24 05:24:47;;;;;;;7.20;5.20;;;;;;;28.01;94.10;99083.28;5071934;28;20211;-72
2023/06/24 05:27:13;;;;;;;9.05;6.05;;;;;;;28.19;91.68;99095.59;5071607;28;20227;-71
2023/06/24 05:29:42;;;;;;;7.53;5.72;;;;;;;28.37;92.43;99092.88;5071996;28;20202;-74
2023/06/24 05:32:09;;;;;;;11.07;5.78;;;;;;;28.57;90.81;99102.31;5071451;28;20309;-73
2023/06/24 05:34:36;;;;;;;7.70;5.72;;;;;;;28.72;89.71;99099.22;5071930;28;20582;-72
2023/06/24 05:37:03;;;;;;;8.20;5.15;;;;;;;28.90;87.10;99107.00;5071482;28;20246;-74
2023/06/24 05:39:30;;;;;;;8.60;5.60;;;;;;;29.04;87.46;99108.41;5071496;28;20242;-73
2023/06/24 05:41:57;;;;;;;9.00;5.32;;;;;;;29.17;88.26;99111.81;5071476;28;20233;-74
2023/06/24 05:44:24;;;;;;;6.55;5.30;;;;;;;29.29;86.39;99110.78;5071619;28;20320;-72
2023/06/24 05:46:52;;;;;;;7.78;5.80;;;;;;;29.41;85.48;99113.38;5071190;28;20226;-74
2023/06/24 05:49:19;;;;;;;7.93;5.45;;;;;;;29.60;88.59;99126.38;5071488;28;20217;-74
2023/06/24 05:51:46;;;;;;;8.75;5.63;;;;;;;29.74;85.81;99133.00;5071150;28;20218;-75
2023/06/24 05:54:13;;;;;;;7.93;5.88;;;;;;;29.74;83.00;99133.00;5071376;28;20199;-74
2023/06/24 05:56:40;;;;;;;6.88;5.35;;;;;;;29.72;82.85;99138.50;5071212;28;20214;-74
2023/06/24 05:59:07;;;;;;;6.93;5.55;;;;;;;29.80;84.40;99139.97;5070699;28;20615;-74
2023/06/24 06:01:34;;;;;;;9.57;6.38;;;;;;;29.67;82.30;99141.06;5070735;28;20902;-72
2023/06/24 06:04:02;;;;;;;7.45;5.35;;;;;;;29.80;83.11;99147.88;5071372;28;20547;-73
2023/06/24 06:06:29;;;;;;;7.60;5.47;;;;;;;29.83;84.66;99152.69;5070691;28;20215;-74
2023/06/24 06:08:56;;;;;;;8.02;5.65;;;;;;;29.81;81.87;99162.66;5071337;28;20207;-74
2023/06/24 06:11:23;;;;;;;8.10;6.00;;;;;;;29.86;80.65;99161.94;5070790;28;20234;-73
2023/06/24 06:13:51;;;;;;;8.90;6.00;;;;;;;29.88;80.89;99163.31;5070881;28;20207;-72
2023/06/24 06:16:18;;;;;;;8.00;5.90;;;;;;;29.67;78.19;99163.94;5070889;28;20761;-74
2023/06/24 06:18:45;;;;;;;9.23;5.53;;;;;;;29.93;82.11;99168.69;5070748;28;20238;-73
2023/06/24 06:21:13;;;;;;;8.65;6.00;;;;;;;30.07;80.48;99169.19;5070798;28;20218;-72
2023/06/24 06:23:40;;;;;;;8.30;5.63;;;;;;;30.29;80.13;99171.19;5070434;28;20201;-74
2023/06/24 06:26:07;;;;;;;10.55;6.10;;;;;;;30.31;78.22;99164.66;5070445;28;20222;-72
2023/06/24 06:28:34;;;;;;;7.97;5.78;;;;;;;30.17;76.62;99163.31;5070479;28;20214;-75
2023/06/24 06:31:01;;;;;;;9.00;5.93;;;;;;;30.38;76.44;99170.56;5070714;28;20219;-73
2023/06/24 06:33:27;;;;;;;8.43;5.97;;;;;;;30.62;80.91;99165.16;5070301;28;20191;-73
2023/06/24 06:35:54;;;;;;;10.07;6.22;;;;;;;30.56;74.51;99172.19;5070180;28;20230;-75
2023/06/24 06:38:22;;;;;;;7.05;5.55;;;;;;;30.71;82.11;99174.25;5070194;28;20225;-74
2023/06/24 06:40:49;;;;;;;8.63;5.97;;;;;;;30.98;82.67;99176.25;5070672;28;20226;-73
2023/06/24 06:43:16;;;;;;;7.75;5.43;;;;;;;31.25;80.04;99168.47;5070438;28;20615;-73
2023/06/24 06:45:43;;;;;;;7.75;5.80;;;;;;;31.45;77.53;99162.69;5070155;28;20694;-74
2023/06/24 06:48:10;;;;;;;7.05;5.57;;;;;;;31.60;76.41;99160.22;5070400;28;20199;-73
2023/06/24 06:50:37;;;;;;;8.07;6.10;;;;;;;31.66;78.96;99159.22;5069998;28;20199;-73
2023/06/24 06:53:03;;;;;;;8.52;5.90;;;;;;;31.78;73.18;99157.25;5070070;28;20213;-72
2023/06/24 06:55:32;;;;;;;7.57;5.70;;;;;;;31.87;76.64;99154.16;5070053;28;20203;-74
2023/06/24 06:57:59;;;;;;;8.75;5.47;;;;;;;31.89;76.21;99149.44;5069977;28;20199;-74
2023/06/24 07:00:25;;;;;;;8.43;6.25;;;;;;;31.93;72.89;99154.00;5070278;28;20207;-74
2023/06/24 07:02:52;;;;;;;9.25;5.93;;;;;;;32.01;71.68;99147.47;5069893;28;20199;-73
2023/06/24 07:05:19;;;;;;;9.30;6.32;;;;;;;32.18;74.85;99145.50;5070364;28;20556;-72
2023/06/24 07:07:46;;;;;;;7.70;5.95;;;;;;;32.27;73.37;99140.56;5069839;28;20241;-73
2023/06/24 07:10:13;;;;;;;11.63;6.20;;;;;;;32.32;69.81;99139.78;5069926;28;20202;-72
2023/06/24 07:12:41;;;;;;;8.20;5.85;;;;;;;32.30;68.54;99142.69;5069473;28;20223;-73
2023/06/24 07:15:09;;;;;;;8.52;5.57;;;;;;;32.43;72.72;99150.19;5069967;28;20294;-74
2023/06/24 07:17:36;;;;;;;7.88;5.53;;;;;;;32.59;72.78;99150.38;5069627;28;20222;-73
2023/06/24 07:20:03;;;;;;;9.20;6.07;;;;;;;32.72;66.59;99149.13;5069681;28;20238;-74
2023/06/24 07:22:30;;;;;;;8.35;6.07;;;;;;;32.87;71.58;99149.22;5069649;28;20221;-73
2023/06/24 07:24:57;;;;;;;8.60;6.30;;;;;;;32.98;68.08;99148.22;5069764;28;20583;-73
2023/06/24 07:27:24;;;;;;;7.60;5.65;;;;;;;33.14;65.57;99151.81;5069479;28;20218;-74
2023/06/24 07:29:52;;;;;;;8.57;6.07;;;;;;;33.19;66.77;99161.63;5069850;28;20233;-74
2023/06/24 07:32:19;;;;;;;7.50;5.93;;;;;;;33.22;63.77;99158.44;5069524;28;20219;-73
2023/06/24 07:34:46;;;;;;;9.30;6.38;;;;;;;33.25;64.09;99152.63;5070051;28;20229;-74
2023/06/24 07:37:13;;;;;;;9.40;6.10;;;;;;;33.47;64.23;99160.44;5069607;28;20218;-74
2023/06/24 07:39:40;;;;;;;8.05;6.10;;;;;;;33.62;66.39;99162.38;5069805;28;20230;-73
2023/06/24 07:42:08;;;;;;;6.40;5.30;;;;;;;33.70;61.26;99161.88;5069694;28;20229;-73
2023/06/24 07:44:36;;;;;;;8.40;6.32;;;;;;;33.98;63.79;99163.28;5069778;28;20206;-73
2023/06/24 07:47:06;;;;;;;6.75;5.30;;;;;;;33.96;56.49;99163.50;5069495;28;21078;-73
2023/06/24 07:49:32;;;;;;;6.55;5.50;;;;;;;34.10;62.09;99163.06;5069663;28;20604;-73
2023/06/24 07:51:59;;;;;;;10.40;6.50;;;;;;;34.10;66.13;99163.84;5069364;28;20244;-74
2023/06/24 07:54:26;;;;;;;8.00;6.00;;;;;;;34.00;65.20;99158.47;5069872;28;20207;-74
2023/06/24 07:56:53;;;;;;;7.82;6.05;;;;;;;34.16;69.62;99162.00;5069291;28;20233;-74
2023/06/24 07:59:20;;;;;;;8.13;6.13;;;;;;;34.28;65.11;99162.53;5069617;28;20260;-73
2023/06/24 08:01:47;;;;;;;7.20;6.10;;;;;;;34.48;64.99;99165.19;5069269;28;20223;-74
2023/06/24 08:04:16;;;;;;;8.50;6.28;;;;;;;34.53;66.99;99159.09;5069747;28;20195;-72
2023/06/24 08:06:43;;;;;;;8.05;6.18;;;;;;;34.53;72.21;99156.44;5069386;28;20606;-73
2023/06/24 08:09:10;;;;;;;8.82;6.00;;;;;;;34.42;62.10;99155.63;5069540;28;20199;-73
2023/06/24 08:11:36;;;;;;;7.90;6.03;;;;;;;34.52;63.42;99156.69;5069244;28;20219;-73
2023/06/24 08:14:04;;;;;;;9.32;6.45;;;;;;;34.64;63.02;99165.19;5069472;28;20222;-73
2023/06/24 08:16:30;;;;;;;8.07;6.10;;;;;;;34.58;62.38;99163.59;5069378;28;20686;-72
2023/06/24 08:18:57;;;;;;;6.97;5.63;;;;;;;34.43;60.22;99156.41;5069443;28;20226;-72
2023/06/24 08:21:25;;;;;;;7.07;5.70;;;;;;;34.75;65.16;99156.16;5069061;28;20219;-73
2023/06/24 08:23:52;;;;;;;6.60;5.32;;;;;;;34.81;60.50;99156.94;5071474;28;20211;-73
2023/06/24 08:26:20;;;;;;;8.35;5.90;;;;;;;34.70;56.26;99161.47;5072902;28;20211;-74
2023/06/24 08:28:55;;;;;;;7.85;5.88;;;;;;;34.74;62.29;99156.44;5072215;28;20547;-72
2023/06/24 08:31:24;;;;;;;9.90;6.15;;;;;;;34.67;64.59;99162.00;5071803;28;20313;-75
2023/06/24 08:33:54;;;;;;;7.82;6.15;;;;;;;34.85;61.17;99164.13;5070750;28;20199;-73
2023/06/24 08:36:23;;;;;;;7.00;5.45;;;;;;;34.87;54.36;99161.97;5071640;28;20230;-75
2023/06/24 08:38:52;;;;;;;8.65;6.72;;;;;;;35.11;61.78;99156.09;5071747;28;20328;-74
2023/06/24 08:41:19;;;;;;;7.00;5.75;;;;;;;35.17;57.38;99155.03;5071981;28;20214;-73
2023/06/24 08:43:45;;;;;;;5.80;5.10;;;;;;;35.25;57.76;99157.13;5072045;28;20211;-75
2023/06/24 08:46:14;;;;;;;7.95;5.00;;;;;;;35.36;55.57;99169.31;5072069;28;20215;-77
2023/06/24 08:48:43;;;;;;;7.95;5.00;;;;;;;35.38;54.98;99166.38;5072370;28;20199;-77
2023/06/24 08:51:12;;;;;;;6.20;4.80;;;;;;;35.55;50.15;99155.44;5072368;28;20225;-73
2023/06/24 08:53:43;;;;;;;6.82;4.90;;;;;;;35.53;47.69;99154.88;5072261;28;20696;-79
2023/06/24 08:56:12;;;;;;;6.97;5.28;;;;;;;35.61;53.74;99149.03;5072296;28;20215;-78
2023/06/24 08:58:39;;;;;;;5.80;4.75;;;;;;;35.74;51.99;99156.38;5072095;28;20218;-76
2023/06/24 09:01:07;;;;;;;5.43;4.90;;;;;;;35.31;48.21;99160.56;5071837;28;20229;-75
2023/06/24 09:03:35;;;;;;;7.15;5.00;;;;;;;35.51;51.67;99149.81;5071941;28;20198;-80
2023/06/24 09:06:02;;;;;;;6.35;4.78;;;;;;;35.35;47.00;99157.09;5071965;28;20284;-77
2023/06/24 09:08:29;;;;;;;6.93;4.65;;;;;;;35.22;47.75;99157.66;5071896;28;20198;-77
2023/06/24 09:10:56;;;;;;;6.63;4.75;;;;;;;34.92;44.22;99154.00;5071931;28;20233;-77
2023/06/24 09:13:34;;;;;;;6.07;4.80;;;;;;;35.16;47.26;99153.44;5071799;28;20217;-74
2023/06/24 09:16:09;;;;;;;5.15;4.18;;;;;;;35.10;41.22;99157.16;5071946;28;20215;-75
2023/06/24 09:18:35;;;;;;;5.05;4.25;;;;;;;35.00;41.07;99155.31;5071897;28;20213;-75
2023/06/24 09:21:03;;;;;;;5.78;4.68;;;;;;;34.90;42.43;99150.81;5071821;28;20230;-75
2023/06/24 09:23:29;;;;;;;6.43;4.82;;;;;;;35.33;48.35;99153.09;5071869;28;20244;-77
2023/06/24 09:25:58;;;;;;;5.95;4.68;;;;;;;35.53;41.88;99141.59;5071692;28;20656;-76
2023/06/24 09:28:28;;;;;;;5.03;4.18;;;;;;;35.88;45.47;99153.13;5071718;28;20206;-77
2023/06/24 09:31:06;;;;;;;5.32;4.25;;;;;;;35.89;42.44;99144.84;5071765;28;20231;-75
2023/06/24 09:33:34;;;;;;;5.18;4.30;;;;;;;35.85;41.76;99143.03;5071316;28;20674;-76
2023/06/24 09:36:03;;;;;;;5.55;4.43;;;;;;;35.67;39.79;99147.94;5071316;28;20596;-76
2023/06/24 09:38:34;;;;;;;5.35;4.35;;;;;;;35.06;39.80;99142.84;5071180;28;20203;-75
2023/06/24 09:41:03;;;;;;;8.80;4.47;;;;;;;35.53;46.06;99137.06;5071560;28;20227;-72
2023/06/24 09:43:32;;;;;;;5.72;4.07;;;;;;;35.82;45.42;99139.84;5070444;28;20252;-79
2023/06/24 09:46:00;;;;;;;6.57;4.00;;;;;;;36.22;47.44;99137.22;5070181;28;20211;-76
2023/06/24 09:48:27;;;;;;;6.18;3.95;;;;;;;36.20;42.98;99140.16;5070088;28;20217;-76
2023/06/24 09:50:55;;;;;;;5.78;4.13;;;;;;;36.22;41.51;99151.31;5069482;28;20230;-75
2023/06/24 09:53:23;;;;;;;4.43;3.60;;;;;;;36.30;40.65;99141.13;5071172;28;20199;-76
2023/06/24 09:55:52;;;;;;;4.03;3.40;;;;;;;36.38;39.84;99143.19;5076198;28;20246;-73
2023/06/24 09:58:20;;;;;;;5.13;4.03;;;;;;;36.38;42.55;99145.84;5071942;28;20697;-76
2023/06/24 10:00:49;;;;;;;5.50;4.20;;;;;;;36.17;41.65;99140.69;5071361;28;20245;-74
2023/06/24 10:03:15;;;;;;;5.78;4.10;;;;;;;36.35;42.51;99141.09;5071170;28;20199;-74
2023/06/24 10:05:43;;;;;;;5.15;3.95;;;;;;;36.64;40.16;99143.78;5071047;28;20605;-76
2023/06/24 10:08:11;;;;;;;5.43;4.18;;;;;;;36.77;41.24;99134.31;5071180;28;20202;-74
2023/06/24 10:10:38;;;;;;;5.32;3.85;;;;;;;36.54;40.91;99134.03;5070875;28;20577;-74
2023/06/24 10:13:06;;;;;;;5.50;4.10;;;;;;;36.31;40.49;99129.41;5070790;28;20202;-76
2023/06/24 10:15:33;;;;;;;5.18;4.05;;;;;;;36.45;39.59;99138.31;5071180;28;20210;-73
2023/06/24 10:18:04;;;;;;;5.55;4.25;;;;;;;36.53;42.00;99127.09;5071137;28;20670;-72
2023/06/24 10:20:30;;;;;;;5.13;4.00;;;;;;;36.04;35.68;99130.66;5070802;28;20234;-79
2023/06/24 10:22:59;;;;;;;4.70;3.65;;;;;;;36.17;36.24;99130.06;5070608;28;20202;-80
2023/06/24 10:25:36;;;;;;;4.38;3.90;;;;;;;36.61;38.35;99123.03;5070803;28;20210;-74
2023/06/24 10:28:03;;;;;;;9.27;4.75;;;;;;;36.53;35.94;99131.63;5070773;28;20202;-74
2023/06/24 10:30:33;;;;;;;5.63;3.92;;;;;;;36.26;35.98;99128.38;5070591;28;20210;-81
2023/06/24 10:33:01;;;;;;;7.10;4.90;;;;;;;36.27;36.49;99119.31;5070432;28;20194;-81
2023/06/24 10:35:31;;;;;;;5.80;4.13;;;;;;;36.55;37.62;99122.28;5070952;28;20578;-79
2023/06/24 10:38:00;;;;;;;5.15;3.90;;;;;;;36.06;34.80;99122.44;5070428;28;20190;-72
2023/06/24 10:40:39;;;;;;;4.35;3.53;;;;;;;36.37;34.93;99122.97;5070451;28;20234;-73
2023/06/24 10:43:26;;;;;;;4.50;3.65;;;;;;;36.44;33.32;99128.75;5070311;28;20203;-78
2023/06/24 10:45:55;;;;;;;4.65;3.75;;;;;;;36.71;34.91;99123.75;5069738;28;20230;-77
2023/06/24 10:48:22;;;;;;;4.13;3.60;;;;;;;36.87;32.75;99115.56;5069808;28;20195;-75
2023/06/24 10:50:51;;;;;;;4.63;3.85;;;;;;;36.79;39.03;99113.53;5070243;28;20219;-82
2023/06/24 10:53:19;;;;;;;6.65;4.03;;;;;;;36.93;34.53;99117.09;5070133;28;20202;-78
2023/06/24 10:55:47;;;;;;;4.75;3.60;;;;;;;37.31;37.89;99110.00;5069949;28;20226;-73
2023/06/24 10:58:15;;;;;;;8.48;5.25;;;;;;;37.33;34.30;99102.50;5070064;28;20729;-78
2023/06/24 11:00:45;;;;;;;16.50;10.43;;;;;;;37.52;33.64;99105.22;5070271;28;20719;-77
2023/06/24 11:03:14;;;;;;;6.22;4.82;;;;;;;37.53;35.82;99106.03;5070301;28;20209;-78
2023/06/24 11:05:41;;;;;;;15.65;9.23;;;;;;;37.42;38.83;99089.31;5070521;28;20210;-74
2023/06/24 11:08:10;;;;;;;5.10;4.10;;;;;;;37.35;35.03;99091.53;5069943;28;20371;-76
2023/06/24 11:10:45;;;;;;;5.93;4.15;;;;;;;37.26;38.86;99086.06;5069997;28;20202;-77
2023/06/24 11:13:11;;;;;;;5.50;4.25;;;;;;;37.30;36.50;99080.97;5070007;28;20198;-74
2023/06/24 11:15:40;;;;;;;4.22;3.83;;;;;;;37.25;38.68;99079.16;5070255;28;20685;-74
2023/06/24 11:18:10;;;;;;;4.03;3.63;;;;;;;37.43;35.67;99080.25;5069692;28;20260;-75
2023/06/24 11:20:37;;;;;;;4.50;3.90;;;;;;;37.58;37.63;99066.69;5069845;28;20229;-77
2023/06/24 11:23:08;;;;;;;4.78;3.85;;;;;;;37.67;39.05;99066.06;5069627;28;20210;-76
2023/06/24 11:25:40;;;;;;;5.88;4.15;;;;;;;37.39;32.94;99055.22;5069765;28;20250;-76
2023/06/24 11:28:13;;;;;;;7.63;4.15;;;;;;;37.07;35.05;99061.28;5069749;28;20222;-76
2023/06/24 11:30:40;;;;;;;7.22;3.88;;;;;;;37.36;38.46;99055.81;5069698;28;20245;-75
2023/06/24 11:33:07;;;;;;;5.00;4.20;;;;;;;37.46;40.76;99049.53;5069311;28;20194;-79
2023/06/24 11:35:36;;;;;;;4.95;4.13;;;;;;;37.55;41.57;99048.59;5069742;28;20211;-79
2023/06/24 11:38:03;;;;;;;4.90;3.97;;;;;;;37.70;39.34;99038.78;5069713;28;20195;-77